Winnipeg James Armstrong Richardson International Airport
CYWG : rendu visible

Aérodrome :











RETROUVEZ-NOUS SUR...

 
LOGIN :

S'inscrire | Disclaimer

   EN    FR    IT 

 









Légende :    VFR   VFR Marginal   IFR   IFR Intensif   IFR Très Intensif
Visi : 
Plafond : 
>= 8 km
>= 3000ft
5 à 8 km
1000 à 3000 ft
1500m à 5 km
500 à 1000 ft
800 à 1500m
200 à 500 ft
< 800m
< 200 ft
Symboles :   Orages  Brouillard  Fortes neiges  Fortes précipitations  Vent > 20 kt






- Altitude de l'aérodrome : 783 ft
- Code IATA : YWG


CYWG - Winnipeg James Armstrong Richardson International

DERNIER METAR :
  • 121800Z 17021G30KT 15SM FEW170 FEW260 M11/M16 A2999 RMK AC1CI2 AC TR SLP180

METARs EXPIRÉS :
  • 121700Z 17027G33KT 15SM FEW170 SCT250 M12/M17 A3002 RMK AC1CI2 AC TR PRESFR SLP190
  • 121600Z 18021G30KT 15SM FEW170 FEW250 M13/M18 A3007 RMK AC1CI1 AC TR CI TR SLP206

TAF TAF CYWG
Valide du 12 à 18h jusqu'au 13 à 18h UTC


121741Z 1218/1318 17025G35KT P6SM FEW170 SCT250
FM130000 18015G25KT P6SM FEW040 BKN140
FM130800 18006KT P6SM FEW030 SCT160 SCT280
BECMG 1310/1312 33010KT
FM131600 33012KT P6SM SCT020
TEMPO 1316/1318 BKN020 RMK NXT FCST BY 130000Z



MET'MAP, la Météo Aéronautique d'un coup d'oeil ! - Copyright ORBIFLY Décembre 2007 - Disclaimer

ORBIFLY MET'MAP TEAM :

Programmation & Développement : Alexandra Zaïnal
Conception & Développement : Baudouin d'Aumeries
Co-Programmation & Développement : Marc-Olivier Méhu
Soutien technique & logistique : Manuel Goepfert

Contact : metmap@orbifly.com




SOURCES & CREDITS :

   NOAA       Earth
Advisory